sensor_id;sensor_type;location;lat;lon;timestamp;P1;durP1;ratioP1;P2;durP2;ratioP2
30380;SDS011;17169;50.966;11.038;2023-07-31T00:02:34;7.10;;;1.52;;
30380;SDS011;17169;50.966;11.038;2023-07-31T00:05:37;6.80;;;1.70;;
30380;SDS011;17169;50.966;11.038;2023-07-31T00:08:39;11.02;;;1.70;;
30380;SDS011;17169;50.966;11.038;2023-07-31T00:11:41;8.27;;;1.40;;
30380;SDS011;17169;50.966;11.038;2023-07-31T00:14:45;5.47;;;1.42;;
30380;SDS011;17169;50.966;11.038;2023-07-31T00:17:47;5.53;;;1.30;;
30380;SDS011;17169;50.966;11.038;2023-07-31T00:20:50;7.45;;;1.58;;
30380;SDS011;17169;50.966;11.038;2023-07-31T00:23:52;5.53;;;1.45;;
30380;SDS011;17169;50.966;11.038;2023-07-31T00:26:54;5.20;;;1.50;;
30380;SDS011;17169;50.966;11.038;2023-07-31T00:29:58;9.48;;;1.50;;
30380;SDS011;17169;50.966;11.038;2023-07-31T00:33:00;4.40;;;1.70;;
30380;SDS011;17169;50.966;11.038;2023-07-31T00:36:03;6.50;;;2.00;;
30380;SDS011;17169;50.966;11.038;2023-07-31T00:39:05;5.47;;;1.80;;
30380;SDS011;17169;50.966;11.038;2023-07-31T00:42:08;6.45;;;1.50;;
30380;SDS011;17169;50.966;11.038;2023-07-31T00:45:11;6.60;;;1.30;;
30380;SDS011;17169;50.966;11.038;2023-07-31T00:48:14;6.55;;;1.75;;
30380;SDS011;17169;50.966;11.038;2023-07-31T00:51:16;11.07;;;2.13;;
30380;SDS011;17169;50.966;11.038;2023-07-31T00:54:19;6.35;;;1.90;;
30380;SDS011;17169;50.966;11.038;2023-07-31T00:57:21;5.00;;;1.60;;
30380;SDS011;17169;50.966;11.038;2023-07-31T01:00:25;11.15;;;2.83;;
30380;SDS011;17169;50.966;11.038;2023-07-31T01:03:27;5.43;;;1.73;;
30380;SDS011;17169;50.966;11.038;2023-07-31T01:06:31;8.82;;;1.70;;
30380;SDS011;17169;50.966;11.038;2023-07-31T01:09:40;4.88;;;1.40;;
30380;SDS011;17169;50.966;11.038;2023-07-31T01:12:46;6.15;;;1.90;;
30380;SDS011;17169;50.966;11.038;2023-07-31T01:15:52;4.93;;;1.40;;
30380;SDS011;17169;50.966;11.038;2023-07-31T01:18:54;5.97;;;1.90;;
30380;SDS011;17169;50.966;11.038;2023-07-31T01:21:59;7.22;;;2.05;;
30380;SDS011;17169;50.966;11.038;2023-07-31T01:25:20;5.05;;;1.52;;
30380;SDS011;17169;50.966;11.038;2023-07-31T01:28:39;7.50;;;1.48;;
30380;SDS011;17169;50.966;11.038;2023-07-31T01:31:48;5.25;;;1.65;;
30380;SDS011;17169;50.966;11.038;2023-07-31T01:34:54;5.03;;;1.80;;
30380;SDS011;17169;50.966;11.038;2023-07-31T01:37:58;7.78;;;1.50;;
30380;SDS011;17169;50.966;11.038;2023-07-31T01:41:00;4.00;;;1.63;;
30380;SDS011;17169;50.966;11.038;2023-07-31T01:44:04;4.80;;;1.35;;
30380;SDS011;17169;50.966;11.038;2023-07-31T01:47:07;7.38;;;1.98;;
30380;SDS011;17169;50.966;11.038;2023-07-31T01:50:09;9.27;;;1.90;;
30380;SDS011;17169;50.966;11.038;2023-07-31T01:53:12;6.88;;;1.52;;
30380;SDS011;17169;50.966;11.038;2023-07-31T01:56:15;6.32;;;1.83;;
30380;SDS011;17169;50.966;11.038;2023-07-31T01:59:18;5.75;;;1.60;;
30380;SDS011;17169;50.966;11.038;2023-07-31T02:02:21;5.30;;;1.85;;
30380;SDS011;17169;50.966;11.038;2023-07-31T02:05:24;4.70;;;2.00;;
30380;SDS011;17169;50.966;11.038;2023-07-31T02:08:27;8.18;;;1.80;;
30380;SDS011;17169;50.966;11.038;2023-07-31T02:11:29;8.05;;;1.60;;
30380;SDS011;17169;50.966;11.038;2023-07-31T02:14:33;5.50;;;1.58;;
30380;SDS011;17169;50.966;11.038;2023-07-31T02:17:35;8.68;;;2.00;;
30380;SDS011;17169;50.966;11.038;2023-07-31T02:20:37;16.52;;;2.08;;
30380;SDS011;17169;50.966;11.038;2023-07-31T02:23:40;7.28;;;1.67;;
30380;SDS011;17169;50.966;11.038;2023-07-31T02:26:42;4.20;;;1.52;;
30380;SDS011;17169;50.966;11.038;2023-07-31T02:29:46;5.97;;;2.20;;
30380;SDS011;17169;50.966;11.038;2023-07-31T02:32:48;6.35;;;1.58;;
30380;SDS011;17169;50.966;11.038;2023-07-31T02:35:50;3.92;;;1.80;;
30380;SDS011;17169;50.966;11.038;2023-07-31T02:38:53;7.72;;;2.40;;
30380;SDS011;17169;50.966;11.038;2023-07-31T02:41:55;5.47;;;1.73;;
30380;SDS011;17169;50.966;11.038;2023-07-31T02:44:59;9.43;;;1.75;;
30380;SDS011;17169;50.966;11.038;2023-07-31T02:48:02;6.85;;;2.08;;
30380;SDS011;17169;50.966;11.038;2023-07-31T02:51:04;3.53;;;1.65;;
30380;SDS011;17169;50.966;11.038;2023-07-31T02:54:07;7.70;;;1.98;;
30380;SDS011;17169;50.966;11.038;2023-07-31T02:57:09;8.18;;;1.92;;
30380;SDS011;17169;50.966;11.038;2023-07-31T03:00:13;4.53;;;1.85;;
30380;SDS011;17169;50.966;11.038;2023-07-31T03:03:15;6.00;;;1.40;;
30380;SDS011;17169;50.966;11.038;2023-07-31T03:06:17;6.15;;;1.63;;
30380;SDS011;17169;50.966;11.038;2023-07-31T03:09:20;5.75;;;2.00;;
30380;SDS011;17169;50.966;11.038;2023-07-31T03:12:22;8.38;;;2.08;;
30380;SDS011;17169;50.966;11.038;2023-07-31T03:15:26;4.05;;;1.75;;
30380;SDS011;17169;50.966;11.038;2023-07-31T03:18:28;5.63;;;1.90;;
30380;SDS011;17169;50.966;11.038;2023-07-31T03:21:31;6.30;;;2.40;;
30380;SDS011;17169;50.966;11.038;2023-07-31T03:24:33;6.20;;;2.20;;
30380;SDS011;17169;50.966;11.038;2023-07-31T03:27:35;3.80;;;1.95;;
30380;SDS011;17169;50.966;11.038;2023-07-31T03:30:39;6.63;;;1.70;;
30380;SDS011;17169;50.966;11.038;2023-07-31T03:33:41;6.90;;;2.80;;
30380;SDS011;17169;50.966;11.038;2023-07-31T03:36:44;6.38;;;1.73;;
30380;SDS011;17169;50.966;11.038;2023-07-31T03:39:46;8.77;;;1.88;;
30380;SDS011;17169;50.966;11.038;2023-07-31T03:42:49;4.43;;;1.75;;
30380;SDS011;17169;50.966;11.038;2023-07-31T03:45:52;5.85;;;1.88;;
30380;SDS011;17169;50.966;11.038;2023-07-31T03:48:55;8.38;;;1.92;;
30380;SDS011;17169;50.966;11.038;2023-07-31T03:51:57;7.45;;;2.35;;
30380;SDS011;17169;50.966;11.038;2023-07-31T03:55:00;4.65;;;1.90;;
30380;SDS011;17169;50.966;11.038;2023-07-31T03:58:02;4.80;;;1.90;;
30380;SDS011;17169;50.966;11.038;2023-07-31T04:01:06;7.30;;;2.15;;
30380;SDS011;17169;50.966;11.038;2023-07-31T04:04:08;6.53;;;2.03;;
30380;SDS011;17169;50.966;11.038;2023-07-31T04:07:10;8.70;;;1.95;;
30380;SDS011;17169;50.966;11.038;2023-07-31T04:10:13;7.03;;;2.00;;
30380;SDS011;17169;50.966;11.038;2023-07-31T04:13:15;4.38;;;1.88;;
30380;SDS011;17169;50.966;11.038;2023-07-31T04:16:19;7.05;;;2.10;;
30380;SDS011;17169;50.966;11.038;2023-07-31T04:19:21;5.78;;;2.10;;
30380;SDS011;17169;50.966;11.038;2023-07-31T04:22:24;4.35;;;1.77;;
30380;SDS011;17169;50.966;11.038;2023-07-31T04:25:26;4.38;;;1.80;;
30380;SDS011;17169;50.966;11.038;2023-07-31T04:28:28;4.25;;;1.73;;
30380;SDS011;17169;50.966;11.038;2023-07-31T04:31:33;5.95;;;2.47;;
30380;SDS011;17169;50.966;11.038;2023-07-31T04:34:36;7.70;;;1.92;;
30380;SDS011;17169;50.966;11.038;2023-07-31T04:37:38;4.88;;;1.65;;
30380;SDS011;17169;50.966;11.038;2023-07-31T04:40:40;2.70;;;1.60;;
30380;SDS011;17169;50.966;11.038;2023-07-31T04:43:43;7.25;;;1.90;;
30380;SDS011;17169;50.966;11.038;2023-07-31T04:46:46;4.90;;;2.22;;
30380;SDS011;17169;50.966;11.038;2023-07-31T04:49:49;7.00;;;2.25;;
30380;SDS011;17169;50.966;11.038;2023-07-31T04:52:51;5.88;;;2.17;;
30380;SDS011;17169;50.966;11.038;2023-07-31T04:55:53;5.70;;;2.00;;
30380;SDS011;17169;50.966;11.038;2023-07-31T04:58:56;6.68;;;1.98;;
30380;SDS011;17169;50.966;11.038;2023-07-31T05:01:59;6.32;;;2.08;;
30380;SDS011;17169;50.966;11.038;2023-07-31T05:05:02;5.15;;;1.98;;
30380;SDS011;17169;50.966;11.038;2023-07-31T05:08:06;8.55;;;2.00;;
30380;SDS011;17169;50.966;11.038;2023-07-31T05:11:09;8.95;;;1.98;;
30380;SDS011;17169;50.966;11.038;2023-07-31T05:14:11;5.85;;;1.52;;
30380;SDS011;17169;50.966;11.038;2023-07-31T05:17:15;4.95;;;1.77;;
30380;SDS011;17169;50.966;11.038;2023-07-31T05:20:18;6.95;;;2.28;;
30380;SDS011;17169;50.966;11.038;2023-07-31T05:23:20;5.40;;;1.50;;
30380;SDS011;17169;50.966;11.038;2023-07-31T05:26:22;5.63;;;2.00;;
30380;SDS011;17169;50.966;11.038;2023-07-31T05:29:25;4.60;;;2.15;;
30380;SDS011;17169;50.966;11.038;2023-07-31T05:32:28;6.95;;;1.95;;
30380;SDS011;17169;50.966;11.038;2023-07-31T05:35:31;5.50;;;2.85;;
30380;SDS011;17169;50.966;11.038;2023-07-31T05:38:33;9.68;;;2.55;;
30380;SDS011;17169;50.966;11.038;2023-07-31T05:41:35;5.13;;;2.15;;
30380;SDS011;17169;50.966;11.038;2023-07-31T05:44:38;5.63;;;2.00;;
30380;SDS011;17169;50.966;11.038;2023-07-31T05:47:41;5.15;;;2.22;;
30380;SDS011;17169;50.966;11.038;2023-07-31T05:50:44;8.27;;;1.98;;
30380;SDS011;17169;50.966;11.038;2023-07-31T05:53:46;6.65;;;2.25;;
30380;SDS011;17169;50.966;11.038;2023-07-31T05:56:48;5.55;;;2.35;;
30380;SDS011;17169;50.966;11.038;2023-07-31T05:59:51;5.38;;;2.22;;
30380;SDS011;17169;50.966;11.038;2023-07-31T06:02:55;7.03;;;2.08;;
30380;SDS011;17169;50.966;11.038;2023-07-31T06:05:57;5.13;;;2.50;;
30380;SDS011;17169;50.966;11.038;2023-07-31T06:09:00;10.30;;;2.47;;
30380;SDS011;17169;50.966;11.038;2023-07-31T06:12:04;7.72;;;2.00;;
30380;SDS011;17169;50.966;11.038;2023-07-31T06:15:07;7.10;;;2.40;;
30380;SDS011;17169;50.966;11.038;2023-07-31T06:18:11;4.18;;;1.98;;
30380;SDS011;17169;50.966;11.038;2023-07-31T06:21:13;9.07;;;1.88;;
30380;SDS011;17169;50.966;11.038;2023-07-31T06:24:16;5.78;;;2.50;;
30380;SDS011;17169;50.966;11.038;2023-07-31T06:27:21;6.78;;;2.20;;
30380;SDS011;17169;50.966;11.038;2023-07-31T06:30:23;8.07;;;2.30;;
30380;SDS011;17169;50.966;11.038;2023-07-31T06:33:27;3.85;;;2.13;;
30380;SDS011;17169;50.966;11.038;2023-07-31T06:36:29;7.65;;;2.40;;
30380;SDS011;17169;50.966;11.038;2023-07-31T06:39:32;6.63;;;2.25;;
30380;SDS011;17169;50.966;11.038;2023-07-31T06:42:34;7.97;;;2.15;;
30380;SDS011;17169;50.966;11.038;2023-07-31T06:45:37;9.57;;;2.38;;
30380;SDS011;17169;50.966;11.038;2023-07-31T06:48:40;5.68;;;2.10;;
30380;SDS011;17169;50.966;11.038;2023-07-31T06:51:43;7.38;;;2.45;;
30380;SDS011;17169;50.966;11.038;2023-07-31T06:54:53;7.53;;;2.20;;
30380;SDS011;17169;50.966;11.038;2023-07-31T06:58:03;7.65;;;2.25;;
30380;SDS011;17169;50.966;11.038;2023-07-31T07:01:05;5.95;;;2.10;;
30380;SDS011;17169;50.966;11.038;2023-07-31T07:04:09;4.07;;;2.05;;
30380;SDS011;17169;50.966;11.038;2023-07-31T07:07:11;5.00;;;2.28;;
30380;SDS011;17169;50.966;11.038;2023-07-31T07:10:14;5.93;;;1.98;;
30380;SDS011;17169;50.966;11.038;2023-07-31T07:13:16;8.05;;;2.63;;
30380;SDS011;17169;50.966;11.038;2023-07-31T07:16:19;8.52;;;2.22;;
30380;SDS011;17169;50.966;11.038;2023-07-31T07:19:23;5.20;;;2.03;;
30380;SDS011;17169;50.966;11.038;2023-07-31T07:22:25;7.60;;;2.38;;
30380;SDS011;17169;50.966;11.038;2023-07-31T07:25:28;5.65;;;2.10;;
30380;SDS011;17169;50.966;11.038;2023-07-31T07:28:30;6.97;;;2.35;;
30380;SDS011;17169;50.966;11.038;2023-07-31T07:31:33;4.75;;;1.90;;
30380;SDS011;17169;50.966;11.038;2023-07-31T07:34:38;8.82;;;2.50;;
30380;SDS011;17169;50.966;11.038;2023-07-31T07:37:40;7.00;;;2.40;;
30380;SDS011;17169;50.966;11.038;2023-07-31T07:40:43;7.53;;;2.80;;
30380;SDS011;17169;50.966;11.038;2023-07-31T07:43:47;10.98;;;2.60;;
30380;SDS011;17169;50.966;11.038;2023-07-31T07:46:49;6.90;;;2.00;;
30380;SDS011;17169;50.966;11.038;2023-07-31T07:49:53;7.85;;;2.60;;
30380;SDS011;17169;50.966;11.038;2023-07-31T07:52:55;4.80;;;2.22;;
30380;SDS011;17169;50.966;11.038;2023-07-31T07:55:57;5.35;;;2.05;;
30380;SDS011;17169;50.966;11.038;2023-07-31T07:59:00;12.07;;;2.40;;
30380;SDS011;17169;50.966;11.038;2023-07-31T08:02:02;12.77;;;2.60;;
30380;SDS011;17169;50.966;11.038;2023-07-31T08:05:07;7.50;;;2.70;;
30380;SDS011;17169;50.966;11.038;2023-07-31T08:08:13;12.45;;;2.65;;
30380;SDS011;17169;50.966;11.038;2023-07-31T08:11:16;7.25;;;2.38;;
30380;SDS011;17169;50.966;11.038;2023-07-31T08:14:18;6.47;;;1.70;;
30380;SDS011;17169;50.966;11.038;2023-07-31T08:17:21;7.03;;;2.38;;
30380;SDS011;17169;50.966;11.038;2023-07-31T08:20:24;4.80;;;1.92;;
30380;SDS011;17169;50.966;11.038;2023-07-31T08:23:28;5.55;;;2.17;;
30380;SDS011;17169;50.966;11.038;2023-07-31T08:26:30;5.53;;;2.08;;
30380;SDS011;17169;50.966;11.038;2023-07-31T08:29:33;9.30;;;2.47;;
30380;SDS011;17169;50.966;11.038;2023-07-31T08:32:35;6.93;;;2.20;;
30380;SDS011;17169;50.966;11.038;2023-07-31T08:35:39;5.60;;;2.42;;
30380;SDS011;17169;50.966;11.038;2023-07-31T08:38:41;5.72;;;2.33;;
30380;SDS011;17169;50.966;11.038;2023-07-31T08:41:43;7.43;;;2.10;;
30380;SDS011;17169;50.966;11.038;2023-07-31T08:44:46;5.70;;;2.42;;
30380;SDS011;17169;50.966;11.038;2023-07-31T08:47:49;5.97;;;2.20;;
30380;SDS011;17169;50.966;11.038;2023-07-31T08:50:54;6.05;;;2.45;;
30380;SDS011;17169;50.966;11.038;2023-07-31T08:53:56;6.15;;;2.03;;
30380;SDS011;17169;50.966;11.038;2023-07-31T08:56:59;4.47;;;2.20;;
30380;SDS011;17169;50.966;11.038;2023-07-31T09:00:02;5.82;;;1.90;;
30380;SDS011;17169;50.966;11.038;2023-07-31T09:03:08;5.60;;;2.85;;
30380;SDS011;17169;50.966;11.038;2023-07-31T09:06:15;5.05;;;2.08;;
30380;SDS011;17169;50.966;11.038;2023-07-31T09:09:20;5.68;;;2.00;;
30380;SDS011;17169;50.966;11.038;2023-07-31T09:12:23;7.60;;;2.40;;
30380;SDS011;17169;50.966;11.038;2023-07-31T09:15:27;6.82;;;2.20;;
30380;SDS011;17169;50.966;11.038;2023-07-31T09:18:30;4.35;;;2.30;;
30380;SDS011;17169;50.966;11.038;2023-07-31T09:21:33;5.35;;;2.38;;
30380;SDS011;17169;50.966;11.038;2023-07-31T09:24:49;9.05;;;2.10;;
30380;SDS011;17169;50.966;11.038;2023-07-31T09:27:52;6.40;;;2.15;;
30380;SDS011;17169;50.966;11.038;2023-07-31T09:30:56;5.93;;;2.00;;
30380;SDS011;17169;50.966;11.038;2023-07-31T09:33:58;5.07;;;2.20;;
30380;SDS011;17169;50.966;11.038;2023-07-31T09:37:02;5.68;;;2.33;;
30380;SDS011;17169;50.966;11.038;2023-07-31T09:43:10;7.00;;;2.13;;
30380;SDS011;17169;50.966;11.038;2023-07-31T09:46:13;9.13;;;2.70;;
30380;SDS011;17169;50.966;11.038;2023-07-31T09:49:16;6.15;;;2.35;;
30380;SDS011;17169;50.966;11.038;2023-07-31T09:52:19;7.53;;;2.63;;
30380;SDS011;17169;50.966;11.038;2023-07-31T09:55:23;7.65;;;2.38;;
30380;SDS011;17169;50.966;11.038;2023-07-31T09:58:27;9.18;;;2.92;;
30380;SDS011;17169;50.966;11.038;2023-07-31T10:01:31;5.60;;;2.17;;
30380;SDS011;17169;50.966;11.038;2023-07-31T10:04:34;5.78;;;2.35;;
30380;SDS011;17169;50.966;11.038;2023-07-31T10:07:38;7.93;;;3.03;;
30380;SDS011;17169;50.966;11.038;2023-07-31T10:10:41;12.63;;;2.50;;
30380;SDS011;17169;50.966;11.038;2023-07-31T10:13:44;5.13;;;2.22;;
30380;SDS011;17169;50.966;11.038;2023-07-31T10:16:48;6.53;;;2.47;;
30380;SDS011;17169;50.966;11.038;2023-07-31T10:19:52;8.43;;;2.75;;
30380;SDS011;17169;50.966;11.038;2023-07-31T10:22:56;5.88;;;2.20;;
30380;SDS011;17169;50.966;11.038;2023-07-31T10:25:59;11.18;;;2.63;;
30380;SDS011;17169;50.966;11.038;2023-07-31T10:29:04;5.73;;;2.63;;
30380;SDS011;17169;50.966;11.038;2023-07-31T10:32:08;5.40;;;2.78;;
30380;SDS011;17169;50.966;11.038;2023-07-31T10:35:12;4.57;;;2.40;;
30380;SDS011;17169;50.966;11.038;2023-07-31T10:38:17;7.65;;;2.70;;
30380;SDS011;17169;50.966;11.038;2023-07-31T10:41:20;9.13;;;2.72;;
30380;SDS011;17169;50.966;11.038;2023-07-31T10:44:30;7.93;;;2.95;;
30380;SDS011;17169;50.966;11.038;2023-07-31T10:47:36;7.45;;;2.70;;
30380;SDS011;17169;50.966;11.038;2023-07-31T10:50:45;5.07;;;2.50;;
30380;SDS011;17169;50.966;11.038;2023-07-31T10:53:50;7.03;;;2.40;;
30380;SDS011;17169;50.966;11.038;2023-07-31T10:57:19;6.70;;;2.63;;
30380;SDS011;17169;50.966;11.038;2023-07-31T11:00:23;5.60;;;2.50;;
30380;SDS011;17169;50.966;11.038;2023-07-31T11:03:40;6.80;;;2.60;;
30380;SDS011;17169;50.966;11.038;2023-07-31T11:06:50;10.57;;;3.38;;
30380;SDS011;17169;50.966;11.038;2023-07-31T11:09:59;7.75;;;2.72;;
30380;SDS011;17169;50.966;11.038;2023-07-31T11:13:03;7.03;;;3.30;;
30380;SDS011;17169;50.966;11.038;2023-07-31T11:16:06;8.10;;;2.75;;
30380;SDS011;17169;50.966;11.038;2023-07-31T11:19:08;9.75;;;3.10;;
30380;SDS011;17169;50.966;11.038;2023-07-31T11:22:11;6.90;;;2.60;;
30380;SDS011;17169;50.966;11.038;2023-07-31T11:25:15;5.07;;;2.60;;
30380;SDS011;17169;50.966;11.038;2023-07-31T11:28:19;11.48;;;2.55;;
30380;SDS011;17169;50.966;11.038;2023-07-31T11:31:22;4.82;;;2.20;;
30380;SDS011;17169;50.966;11.038;2023-07-31T11:34:24;5.00;;;2.42;;
30380;SDS011;17169;50.966;11.038;2023-07-31T11:37:38;8.43;;;3.25;;
30380;SDS011;17169;50.966;11.038;2023-07-31T11:40:42;6.00;;;2.67;;
30380;SDS011;17169;50.966;11.038;2023-07-31T11:43:46;4.88;;;2.33;;
30380;SDS011;17169;50.966;11.038;2023-07-31T11:46:48;6.45;;;3.03;;
30380;SDS011;17169;50.966;11.038;2023-07-31T11:49:52;7.95;;;2.55;;
30380;SDS011;17169;50.966;11.038;2023-07-31T11:52:57;7.22;;;3.35;;
30380;SDS011;17169;50.966;11.038;2023-07-31T11:56:04;7.05;;;2.80;;
30380;SDS011;17169;50.966;11.038;2023-07-31T11:59:07;7.85;;;2.80;;
30380;SDS011;17169;50.966;11.038;2023-07-31T12:02:10;6.70;;;2.40;;
30380;SDS011;17169;50.966;11.038;2023-07-31T12:05:12;5.28;;;2.63;;
30380;SDS011;17169;50.966;11.038;2023-07-31T12:08:15;6.47;;;2.53;;
30380;SDS011;17169;50.966;11.038;2023-07-31T12:11:19;5.10;;;2.38;;
30380;SDS011;17169;50.966;11.038;2023-07-31T12:14:22;5.40;;;2.50;;
30380;SDS011;17169;50.966;11.038;2023-07-31T12:17:26;6.53;;;2.97;;
30380;SDS011;17169;50.966;11.038;2023-07-31T12:20:28;6.25;;;2.22;;
30380;SDS011;17169;50.966;11.038;2023-07-31T12:23:32;7.28;;;2.05;;
30380;SDS011;17169;50.966;11.038;2023-07-31T12:26:36;4.07;;;1.90;;
30380;SDS011;17169;50.966;11.038;2023-07-31T12:29:39;5.07;;;2.13;;
30380;SDS011;17169;50.966;11.038;2023-07-31T12:32:43;4.03;;;2.10;;
30380;SDS011;17169;50.966;11.038;2023-07-31T12:35:46;6.22;;;2.42;;
30380;SDS011;17169;50.966;11.038;2023-07-31T12:38:49;6.72;;;2.15;;
30380;SDS011;17169;50.966;11.038;2023-07-31T12:41:53;3.95;;;1.75;;
30380;SDS011;17169;50.966;11.038;2023-07-31T12:44:55;6.35;;;2.08;;
30380;SDS011;17169;50.966;11.038;2023-07-31T12:47:59;4.85;;;1.90;;
30380;SDS011;17169;50.966;11.038;2023-07-31T12:51:01;6.03;;;2.17;;
30380;SDS011;17169;50.966;11.038;2023-07-31T12:54:04;5.80;;;2.25;;
30380;SDS011;17169;50.966;11.038;2023-07-31T12:57:08;4.25;;;1.80;;
30380;SDS011;17169;50.966;11.038;2023-07-31T13:00:10;3.25;;;1.83;;
30380;SDS011;17169;50.966;11.038;2023-07-31T13:03:14;4.18;;;2.30;;
30380;SDS011;17169;50.966;11.038;2023-07-31T13:06:16;5.32;;;2.00;;
30380;SDS011;17169;50.966;11.038;2023-07-31T13:09:19;5.65;;;2.08;;
30380;SDS011;17169;50.966;11.038;2023-07-31T13:12:22;8.10;;;2.15;;
30380;SDS011;17169;50.966;11.038;2023-07-31T13:15:25;6.32;;;2.10;;
30380;SDS011;17169;50.966;11.038;2023-07-31T13:18:27;4.07;;;1.60;;
30380;SDS011;17169;50.966;11.038;2023-07-31T13:21:30;5.82;;;2.25;;
30380;SDS011;17169;50.966;11.038;2023-07-31T13:24:32;9.57;;;2.20;;
30380;SDS011;17169;50.966;11.038;2023-07-31T13:27:36;5.03;;;2.00;;
30380;SDS011;17169;50.966;11.038;2023-07-31T13:30:38;6.70;;;2.05;;
30380;SDS011;17169;50.966;11.038;2023-07-31T13:33:40;3.97;;;2.00;;
30380;SDS011;17169;50.966;11.038;2023-07-31T13:36:43;6.85;;;2.10;;
30380;SDS011;17169;50.966;11.038;2023-07-31T13:39:45;4.00;;;1.90;;
30380;SDS011;17169;50.966;11.038;2023-07-31T13:42:49;4.75;;;2.00;;
30380;SDS011;17169;50.966;11.038;2023-07-31T13:45:51;3.78;;;1.90;;
30380;SDS011;17169;50.966;11.038;2023-07-31T13:48:53;3.97;;;1.88;;
30380;SDS011;17169;50.966;11.038;2023-07-31T13:51:56;4.60;;;2.13;;
30380;SDS011;17169;50.966;11.038;2023-07-31T13:54:59;4.85;;;2.25;;
30380;SDS011;17169;50.966;11.038;2023-07-31T13:58:03;6.95;;;2.63;;
30380;SDS011;17169;50.966;11.038;2023-07-31T14:01:05;7.10;;;2.55;;
30380;SDS011;17169;50.966;11.038;2023-07-31T14:04:07;6.40;;;2.35;;
30380;SDS011;17169;50.966;11.038;2023-07-31T14:07:10;9.73;;;3.05;;
30380;SDS011;17169;50.966;11.038;2023-07-31T14:10:12;7.40;;;2.40;;
30380;SDS011;17169;50.966;11.038;2023-07-31T14:13:16;6.93;;;2.35;;
30380;SDS011;17169;50.966;11.038;2023-07-31T14:16:18;7.72;;;2.13;;
30380;SDS011;17169;50.966;11.038;2023-07-31T14:19:21;6.63;;;2.78;;
30380;SDS011;17169;50.966;11.038;2023-07-31T14:22:27;9.65;;;2.90;;
30380;SDS011;17169;50.966;11.038;2023-07-31T14:25:30;11.63;;;2.78;;
30380;SDS011;17169;50.966;11.038;2023-07-31T14:28:34;8.57;;;2.70;;
30380;SDS011;17169;50.966;11.038;2023-07-31T14:31:36;8.15;;;2.90;;
30380;SDS011;17169;50.966;11.038;2023-07-31T14:34:38;9.07;;;2.70;;
30380;SDS011;17169;50.966;11.038;2023-07-31T14:37:42;8.27;;;3.00;;
30380;SDS011;17169;50.966;11.038;2023-07-31T14:40:45;8.10;;;2.72;;
30380;SDS011;17169;50.966;11.038;2023-07-31T14:43:49;10.93;;;2.83;;
30380;SDS011;17169;50.966;11.038;2023-07-31T14:46:51;7.80;;;2.50;;
30380;SDS011;17169;50.966;11.038;2023-07-31T14:49:53;9.15;;;3.00;;
30380;SDS011;17169;50.966;11.038;2023-07-31T14:52:56;7.20;;;2.60;;
30380;SDS011;17169;50.966;11.038;2023-07-31T14:55:58;7.10;;;2.67;;
30380;SDS011;17169;50.966;11.038;2023-07-31T14:59:02;7.45;;;3.22;;
30380;SDS011;17169;50.966;11.038;2023-07-31T15:02:05;7.57;;;2.50;;
30380;SDS011;17169;50.966;11.038;2023-07-31T15:05:08;8.20;;;2.85;;
30380;SDS011;17169;50.966;11.038;2023-07-31T15:08:10;7.72;;;2.63;;
30380;SDS011;17169;50.966;11.038;2023-07-31T15:11:13;9.80;;;2.70;;
30380;SDS011;17169;50.966;11.038;2023-07-31T15:14:21;6.78;;;2.50;;
30380;SDS011;17169;50.966;11.038;2023-07-31T15:17:23;7.93;;;2.58;;
30380;SDS011;17169;50.966;11.038;2023-07-31T15:20:25;10.40;;;3.35;;
30380;SDS011;17169;50.966;11.038;2023-07-31T15:23:28;7.00;;;2.53;;
30380;SDS011;17169;50.966;11.038;2023-07-31T15:26:30;9.10;;;2.50;;
30380;SDS011;17169;50.966;11.038;2023-07-31T15:29:34;6.50;;;2.83;;
30380;SDS011;17169;50.966;11.038;2023-07-31T15:32:37;5.68;;;2.58;;
30380;SDS011;17169;50.966;11.038;2023-07-31T15:35:40;8.90;;;3.20;;
30380;SDS011;17169;50.966;11.038;2023-07-31T15:38:43;8.23;;;2.72;;
30380;SDS011;17169;50.966;11.038;2023-07-31T15:41:46;9.70;;;2.97;;
30380;SDS011;17169;50.966;11.038;2023-07-31T15:44:50;4.10;;;2.30;;
30380;SDS011;17169;50.966;11.038;2023-07-31T15:47:52;16.15;;;3.03;;
30380;SDS011;17169;50.966;11.038;2023-07-31T15:50:55;9.52;;;2.83;;
30380;SDS011;17169;50.966;11.038;2023-07-31T15:53:57;7.93;;;2.70;;
30380;SDS011;17169;50.966;11.038;2023-07-31T15:56:59;8.77;;;2.78;;
30380;SDS011;17169;50.966;11.038;2023-07-31T16:00:04;5.72;;;3.22;;
30380;SDS011;17169;50.966;11.038;2023-07-31T16:03:07;6.97;;;2.58;;
30380;SDS011;17169;50.966;11.038;2023-07-31T16:06:09;9.88;;;4.22;;
30380;SDS011;17169;50.966;11.038;2023-07-31T16:09:12;8.25;;;3.00;;
30380;SDS011;17169;50.966;11.038;2023-07-31T16:12:14;6.05;;;2.88;;
30380;SDS011;17169;50.966;11.038;2023-07-31T16:15:18;6.25;;;2.63;;
30380;SDS011;17169;50.966;11.038;2023-07-31T16:18:20;7.13;;;2.90;;
30380;SDS011;17169;50.966;11.038;2023-07-31T16:21:22;11.20;;;3.00;;
30380;SDS011;17169;50.966;11.038;2023-07-31T16:24:25;7.43;;;2.95;;
30380;SDS011;17169;50.966;11.038;2023-07-31T16:27:27;9.35;;;2.80;;
30380;SDS011;17169;50.966;11.038;2023-07-31T16:30:31;10.15;;;3.15;;
30380;SDS011;17169;50.966;11.038;2023-07-31T16:33:33;12.57;;;3.53;;
30380;SDS011;17169;50.966;11.038;2023-07-31T16:36:36;7.72;;;2.67;;
30380;SDS011;17169;50.966;11.038;2023-07-31T16:39:38;7.35;;;2.88;;
30380;SDS011;17169;50.966;11.038;2023-07-31T16:42:43;7.53;;;2.72;;
30380;SDS011;17169;50.966;11.038;2023-07-31T16:45:47;8.68;;;2.83;;
30380;SDS011;17169;50.966;11.038;2023-07-31T16:48:50;8.15;;;3.22;;
30380;SDS011;17169;50.966;11.038;2023-07-31T16:51:53;8.63;;;2.33;;
30380;SDS011;17169;50.966;11.038;2023-07-31T16:54:55;9.90;;;2.63;;
30380;SDS011;17169;50.966;11.038;2023-07-31T16:57:57;7.68;;;2.80;;
30380;SDS011;17169;50.966;11.038;2023-07-31T17:01:02;8.05;;;2.67;;
30380;SDS011;17169;50.966;11.038;2023-07-31T17:04:04;9.40;;;2.58;;
30380;SDS011;17169;50.966;11.038;2023-07-31T17:07:07;8.73;;;2.60;;
30380;SDS011;17169;50.966;11.038;2023-07-31T17:10:09;6.13;;;2.72;;
30380;SDS011;17169;50.966;11.038;2023-07-31T17:13:11;5.30;;;2.80;;
30380;SDS011;17169;50.966;11.038;2023-07-31T17:16:15;7.32;;;2.67;;
30380;SDS011;17169;50.966;11.038;2023-07-31T17:19:18;8.60;;;2.92;;
30380;SDS011;17169;50.966;11.038;2023-07-31T17:22:21;8.15;;;2.78;;
30380;SDS011;17169;50.966;11.038;2023-07-31T17:25:23;9.60;;;3.50;;
30380;SDS011;17169;50.966;11.038;2023-07-31T17:28:25;6.82;;;3.03;;
30380;SDS011;17169;50.966;11.038;2023-07-31T17:31:29;9.90;;;3.20;;
30380;SDS011;17169;50.966;11.038;2023-07-31T17:34:32;7.50;;;2.95;;
30380;SDS011;17169;50.966;11.038;2023-07-31T17:37:34;8.93;;;3.25;;
30380;SDS011;17169;50.966;11.038;2023-07-31T17:40:37;8.93;;;2.65;;
30380;SDS011;17169;50.966;11.038;2023-07-31T17:43:39;7.30;;;2.83;;
30380;SDS011;17169;50.966;11.038;2023-07-31T17:46:43;7.38;;;3.38;;
30380;SDS011;17169;50.966;11.038;2023-07-31T17:49:45;5.65;;;2.65;;
30380;SDS011;17169;50.966;11.038;2023-07-31T17:52:48;5.95;;;2.83;;
30380;SDS011;17169;50.966;11.038;2023-07-31T17:55:50;7.68;;;2.90;;
30380;SDS011;17169;50.966;11.038;2023-07-31T17:58:52;7.60;;;2.50;;
30380;SDS011;17169;50.966;11.038;2023-07-31T18:01:56;6.53;;;2.67;;
30380;SDS011;17169;50.966;11.038;2023-07-31T18:04:58;7.25;;;2.95;;
30380;SDS011;17169;50.966;11.038;2023-07-31T18:08:01;6.35;;;2.55;;
30380;SDS011;17169;50.966;11.038;2023-07-31T18:11:03;7.68;;;2.75;;